Time;durP1;ratioP1;P1;durP2;ratioP2;P2;SDS_P1;SDS_P2;PMS_P1;PMS_P2;Temp;Humidity;BMP_temperature;BMP_pressure;BME280_temperature;BME280_humidity;BME280_pressure;Samples;Min_cycle;Max_cycle;Signal;HPM_P1;HPM_P2
2022/03/04 00:02:19;;;;;;;6.00;5.40;;;;;;;;;;4980610;28;20212;-50
2022/03/04 00:04:46;;;;;;;6.40;5.80;;;;;;;;;;4979864;28;20220;-49
2022/03/04 00:07:14;;;;;;;6.13;5.53;;;;;;;;;;4979983;28;20270;-50
2022/03/04 00:09:41;;;;;;;7.22;6.00;;;;;;;;;;4980480;28;20203;-49
2022/03/04 00:12:09;;;;;;;6.50;5.90;;;;;;;;;;4980727;28;20239;-50
2022/03/04 00:14:36;;;;;;;7.40;6.50;;;;;;;;;;4979906;28;20204;-50
2022/03/04 00:17:06;;;;;;;7.15;6.43;;;;;;;;;;4980632;28;20208;-50
2022/03/04 00:19:34;;;;;;;6.88;6.18;;;;;;;;;;4979812;28;20204;-49
2022/03/04 00:22:01;;;;;;;7.22;6.53;;;;;;;;;;4980316;28;20227;-50
2022/03/04 00:24:28;;;;;;;7.10;6.43;;;;;;;;;;4977283;28;20277;-50
2022/03/04 00:26:56;;;;;;;6.70;6.00;;;;;;;;;;4976979;28;20282;-49
2022/03/04 00:29:23;;;;;;;7.75;6.40;;;;;;;;;;4977894;28;20199;-50
2022/03/04 00:31:50;;;;;;;7.35;6.43;;;;;;;;;;4979746;28;20798;-49
2022/03/04 00:34:19;;;;;;;7.15;6.38;;;;;;;;;;4979834;28;20204;-50
2022/03/04 00:36:46;;;;;;;7.22;6.45;;;;;;;;;;4979787;28;20483;-50
2022/03/04 00:39:14;;;;;;;6.55;5.95;;;;;;;;;;4979727;28;20207;-50
2022/03/04 00:41:42;;;;;;;6.80;6.07;;;;;;;;;;4979387;28;20282;-50
2022/03/04 00:44:09;;;;;;;6.97;6.25;;;;;;;;;;4979400;28;20231;-50
2022/03/04 00:46:37;;;;;;;7.18;6.47;;;;;;;;;;4979616;28;20203;-50
2022/03/04 00:49:05;;;;;;;7.45;6.47;;;;;;;;;;4979572;28;20207;-49
2022/03/04 00:51:33;;;;;;;8.10;6.97;;;;;;;;;;4979901;28;20274;-50
2022/03/04 00:54:01;;;;;;;7.40;6.32;;;;;;;;;;4980136;28;20548;-50
2022/03/04 00:56:28;;;;;;;7.03;6.32;;;;;;;;;;4980269;28;20285;-50
2022/03/04 00:58:55;;;;;;;7.68;6.32;;;;;;;;;;4968475;28;20252;-50
2022/03/04 01:01:23;;;;;;;8.75;7.10;;;;;;;;;;4979335;28;20573;-50
2022/03/04 01:03:50;;;;;;;7.82;6.60;;;;;;;;;;4979632;28;20350;-49
2022/03/04 01:06:18;;;;;;;7.38;6.60;;;;;;;;;;4979799;28;20215;-49
2022/03/04 01:08:47;;;;;;;7.22;6.50;;;;;;;;;;4978857;28;20641;-50
2022/03/04 01:11:14;;;;;;;7.78;6.47;;;;;;;;;;4979767;28;20271;-49
2022/03/04 01:13:42;;;;;;;6.82;6.13;;;;;;;;;;4979732;28;20417;-49
2022/03/04 01:16:09;;;;;;;7.18;6.47;;;;;;;;;;4979720;28;20204;-49
2022/03/04 01:18:36;;;;;;;7.97;7.18;;;;;;;;;;4978922;28;20733;-49
2022/03/04 01:21:03;;;;;;;8.15;7.03;;;;;;;;;;4979322;28;20219;-50
2022/03/04 01:23:31;;;;;;;7.03;5.97;;;;;;;;;;4979208;28;20270;-50
2022/03/04 01:25:59;;;;;;;7.47;6.63;;;;;;;;;;4979731;28;20588;-49
2022/03/04 01:28:27;;;;;;;7.57;6.78;;;;;;;;;;4979625;28;20208;-49
2022/03/04 01:30:54;;;;;;;7.40;6.63;;;;;;;;;;4978868;28;20258;-50
2022/03/04 01:33:21;;;;;;;7.85;7.05;;;;;;;;;;4979241;28;20279;-49
2022/03/04 01:35:49;;;;;;;8.77;7.40;;;;;;;;;;4979208;28;20207;-49
2022/03/04 01:38:16;;;;;;;8.50;7.25;;;;;;;;;;4979418;28;20259;-50
2022/03/04 01:40:44;;;;;;;7.40;6.70;;;;;;;;;;4978768;28;20227;-50
2022/03/04 01:43:12;;;;;;;7.68;6.88;;;;;;;;;;4978689;28;20287;-50
2022/03/04 01:45:40;;;;;;;7.97;7.00;;;;;;;;;;4978070;28;20232;-49
2022/03/04 01:48:07;;;;;;;8.20;7.38;;;;;;;;;;4978964;28;20290;-49
2022/03/04 01:50:35;;;;;;;8.23;7.15;;;;;;;;;;4978502;28;20575;-49
2022/03/04 01:53:03;;;;;;;8.32;7.53;;;;;;;;;;4977838;28;20207;-50
2022/03/04 01:55:30;;;;;;;7.80;7.00;;;;;;;;;;4978550;28;20266;-49
2022/03/04 01:57:58;;;;;;;8.55;7.20;;;;;;;;;;4978320;28;20204;-49
2022/03/04 02:00:27;;;;;;;8.10;7.30;;;;;;;;;;4978632;28;20279;-49
2022/03/04 02:02:57;;;;;;;8.10;7.30;;;;;;;;;;4978696;28;20285;-49
2022/03/04 02:05:24;;;;;;;8.55;7.32;;;;;;;;;;4978858;28;20207;-50
2022/03/04 02:07:52;;;;;;;8.52;6.85;;;;;;;;;;4978572;28;20219;-49
2022/03/04 02:10:20;;;;;;;8.10;7.28;;;;;;;;;;4978349;28;20280;-49
2022/03/04 02:12:48;;;;;;;9.18;7.68;;;;;;;;;;4978482;28;20208;-49
2022/03/04 02:15:15;;;;;;;8.70;7.20;;;;;;;;;;4978002;28;20233;-49
2022/03/04 02:17:44;;;;;;;8.45;7.65;;;;;;;;;;4978314;28;20203;-49
2022/03/04 02:20:11;;;;;;;8.07;7.18;;;;;;;;;;4978392;28;20645;-49
2022/03/04 02:22:40;;;;;;;8.52;7.57;;;;;;;;;;4978028;28;20652;-49
2022/03/04 02:25:09;;;;;;;8.00;6.72;;;;;;;;;;4978493;28;20200;-49
2022/03/04 02:27:36;;;;;;;8.73;7.00;;;;;;;;;;4977872;28;20290;-49
2022/03/04 02:30:04;;;;;;;8.35;7.43;;;;;;;;;;4978422;28;20282;-50
2022/03/04 02:32:31;;;;;;;9.13;7.43;;;;;;;;;;4978740;28;20590;-49
2022/03/04 02:35:01;;;;;;;8.25;7.43;;;;;;;;;;4978990;28;20216;-50
2022/03/04 02:37:28;;;;;;;8.77;7.88;;;;;;;;;;4978947;28;20235;-49
2022/03/04 02:39:57;;;;;;;9.07;7.10;;;;;;;;;;4978897;28;20211;-49
2022/03/04 02:42:24;;;;;;;7.95;7.15;;;;;;;;;;4978522;28;20231;-49
2022/03/04 02:44:51;;;;;;;9.10;7.75;;;;;;;;;;4978310;28;20649;-49
2022/03/04 02:47:19;;;;;;;8.10;7.30;;;;;;;;;;4978500;28;20266;-49
2022/03/04 02:49:46;;;;;;;8.30;7.20;;;;;;;;;;4978717;28;20208;-49
2022/03/04 02:52:14;;;;;;;8.38;7.43;;;;;;;;;;4978220;28;20266;-49
2022/03/04 02:54:41;;;;;;;8.90;7.60;;;;;;;;;;4978958;28;20274;-49
2022/03/04 02:57:09;;;;;;;7.65;6.85;;;;;;;;;;4977666;28;20216;-49
2022/03/04 02:59:37;;;;;;;8.20;7.40;;;;;;;;;;4978465;28;20203;-49
2022/03/04 03:02:04;;;;;;;8.48;7.63;;;;;;;;;;4978036;28;20302;-49
2022/03/04 03:04:32;;;;;;;8.50;7.63;;;;;;;;;;4978451;28;20223;-49
2022/03/04 03:06:59;;;;;;;8.40;7.50;;;;;;;;;;4978152;28;20203;-49
2022/03/04 03:09:26;;;;;;;8.38;7.57;;;;;;;;;;4978421;28;20290;-49
2022/03/04 03:11:54;;;;;;;8.02;7.22;;;;;;;;;;4977873;28;20199;-49
2022/03/04 03:14:23;;;;;;;8.27;7.35;;;;;;;;;;4978050;28;20424;-49
2022/03/04 03:16:50;;;;;;;9.35;8.45;;;;;;;;;;4978009;28;20204;-49
2022/03/04 03:19:17;;;;;;;8.75;7.85;;;;;;;;;;4978200;28;20220;-50
2022/03/04 03:21:45;;;;;;;9.63;7.85;;;;;;;;;;4978046;28;20293;-49
2022/03/04 03:24:12;;;;;;;8.45;7.65;;;;;;;;;;4977903;28;20211;-49
2022/03/04 03:26:39;;;;;;;8.93;8.02;;;;;;;;;;4977687;28;20214;-49
2022/03/04 03:29:09;;;;;;;8.55;7.32;;;;;;;;;;4978022;28;20208;-49
2022/03/04 03:31:38;;;;;;;8.98;8.07;;;;;;;;;;4977547;28;20199;-49
2022/03/04 03:34:05;;;;;;;9.13;8.10;;;;;;;;;;4977847;28;20503;-49
2022/03/04 03:36:32;;;;;;;8.50;7.65;;;;;;;;;;4978160;28;20807;-49
2022/03/04 03:38:59;;;;;;;9.52;8.07;;;;;;;;;;4978241;28;20596;-50
2022/03/04 03:41:27;;;;;;;8.68;7.78;;;;;;;;;;4977474;28;20298;-49
2022/03/04 03:43:54;;;;;;;8.23;7.20;;;;;;;;;;4977739;28;20246;-50
2022/03/04 03:46:21;;;;;;;9.27;8.32;;;;;;;;;;4977884;28;20208;-49
2022/03/04 03:48:50;;;;;;;9.35;8.40;;;;;;;;;;4977820;28;20200;-49
2022/03/04 03:51:17;;;;;;;8.95;8.05;;;;;;;;;;4977241;28;20204;-49
2022/03/04 03:53:45;;;;;;;8.73;7.85;;;;;;;;;;4977952;28;20282;-49
2022/03/04 03:56:12;;;;;;;9.63;8.63;;;;;;;;;;4977571;28;20269;-50
2022/03/04 03:58:40;;;;;;;9.00;8.10;;;;;;;;;;4977925;28;20270;-49
2022/03/04 04:01:07;;;;;;;9.23;8.13;;;;;;;;;;4977584;28;20800;-49
2022/03/04 04:03:35;;;;;;;9.05;8.13;;;;;;;;;;4977459;28;20200;-49
2022/03/04 04:06:04;;;;;;;10.50;9.40;;;;;;;;;;4977557;28;20508;-50
2022/03/04 04:08:31;;;;;;;10.13;8.52;;;;;;;;;;4978258;28;20208;-49
2022/03/04 04:10:59;;;;;;;9.43;8.52;;;;;;;;;;4977423;28;20279;-49
2022/03/04 04:13:26;;;;;;;10.82;9.18;;;;;;;;;;4977604;28;20255;-49
2022/03/04 04:15:53;;;;;;;9.80;8.77;;;;;;;;;;4978378;28;20254;-49
2022/03/04 04:18:21;;;;;;;9.88;8.88;;;;;;;;;;4981199;28;20603;-49
2022/03/04 04:20:48;;;;;;;10.15;9.15;;;;;;;;;;4981065;28;20572;-49
2022/03/04 04:23:17;;;;;;;9.73;8.73;;;;;;;;;;4981200;28;20227;-49
2022/03/04 04:25:44;;;;;;;10.25;9.18;;;;;;;;;;4980690;28;20278;-49
2022/03/04 04:28:12;;;;;;;11.38;9.25;;;;;;;;;;4980773;28;20215;-49
2022/03/04 04:30:39;;;;;;;10.13;9.13;;;;;;;;;;4980948;28;20204;-49
2022/03/04 04:33:06;;;;;;;10.25;9.23;;;;;;;;;;4980620;28;20199;-49
2022/03/04 04:35:34;;;;;;;10.25;9.23;;;;;;;;;;4979744;28;20274;-49
2022/03/04 04:38:01;;;;;;;10.20;9.20;;;;;;;;;;4980564;28;20219;-49
2022/03/04 04:40:30;;;;;;;10.32;9.23;;;;;;;;;;4979968;28;20212;-49
2022/03/04 04:42:57;;;;;;;10.02;8.93;;;;;;;;;;4980595;28;20235;-49
2022/03/04 04:45:24;;;;;;;11.07;9.88;;;;;;;;;;4979947;28;20235;-49
2022/03/04 04:47:51;;;;;;;10.55;9.20;;;;;;;;;;4980092;28;20208;-49
2022/03/04 04:50:19;;;;;;;11.10;9.45;;;;;;;;;;4980240;28;20204;-49
2022/03/04 04:52:47;;;;;;;11.23;9.93;;;;;;;;;;4980179;28;20707;-49
2022/03/04 04:55:14;;;;;;;10.57;9.48;;;;;;;;;;4980074;28;20230;-49
2022/03/04 04:57:43;;;;;;;10.93;9.77;;;;;;;;;;4980017;28;20551;-49
2022/03/04 05:00:11;;;;;;;10.85;9.30;;;;;;;;;;4980229;28;20211;-50
2022/03/04 05:02:38;;;;;;;10.85;9.75;;;;;;;;;;4979518;28;20294;-49
2022/03/04 05:05:06;;;;;;;11.30;10.10;;;;;;;;;;4979152;28;20200;-49
2022/03/04 05:07:33;;;;;;;10.57;9.48;;;;;;;;;;4979569;28;20203;-49
2022/03/04 05:10:00;;;;;;;11.45;10.25;;;;;;;;;;4979230;28;20278;-49
2022/03/04 05:12:28;;;;;;;10.40;9.30;;;;;;;;;;4980134;28;20207;-49
2022/03/04 05:14:57;;;;;;;10.18;9.15;;;;;;;;;;4979295;28;21312;-49
2022/03/04 05:17:24;;;;;;;10.95;9.85;;;;;;;;;;4979824;28;20579;-49
2022/03/04 05:19:51;;;;;;;10.80;9.70;;;;;;;;;;4979763;28;20298;-49
2022/03/04 05:22:19;;;;;;;9.75;8.75;;;;;;;;;;4978923;28;20561;-49
2022/03/04 05:24:47;;;;;;;10.80;9.70;;;;;;;;;;4978958;28;20207;-49
2022/03/04 05:27:16;;;;;;;10.35;9.10;;;;;;;;;;4977115;28;20207;-49
2022/03/04 05:29:44;;;;;;;10.85;9.75;;;;;;;;;;4978398;28;20211;-49
2022/03/04 05:32:13;;;;;;;10.23;9.10;;;;;;;;;;4978370;28;20294;-49
2022/03/04 05:34:41;;;;;;;10.63;9.48;;;;;;;;;;4979113;28;20325;-49
2022/03/04 05:37:08;;;;;;;9.82;8.82;;;;;;;;;;4978065;28;20274;-49
2022/03/04 05:39:35;;;;;;;10.88;9.77;;;;;;;;;;4977830;28;20207;-49
2022/03/04 05:42:02;;;;;;;10.45;9.15;;;;;;;;;;4977882;28;20220;-49
2022/03/04 05:44:30;;;;;;;10.60;9.50;;;;;;;;;;4977903;28;20235;-49
2022/03/04 05:46:57;;;;;;;10.20;9.20;;;;;;;;;;4977955;28;20203;-49
2022/03/04 05:49:26;;;;;;;9.77;8.77;;;;;;;;;;4977592;28;20566;-49
2022/03/04 05:51:53;;;;;;;10.18;9.07;;;;;;;;;;4976922;28;20266;-49
2022/03/04 05:54:20;;;;;;;9.88;8.88;;;;;;;;;;4977090;28;20274;-49
2022/03/04 05:56:48;;;;;;;10.32;9.23;;;;;;;;;;4976126;28;20208;-49
2022/03/04 05:59:15;;;;;;;9.70;8.70;;;;;;;;;;4977549;28;20207;-49
2022/03/04 06:01:42;;;;;;;9.18;8.27;;;;;;;;;;4976486;28;20212;-49
2022/03/04 06:04:09;;;;;;;9.90;8.90;;;;;;;;;;4977059;28;20223;-49
2022/03/04 06:06:38;;;;;;;9.88;8.88;;;;;;;;;;4976593;28;20207;-49
2022/03/04 06:09:05;;;;;;;9.02;8.13;;;;;;;;;;4977210;28;20233;-49
2022/03/04 06:11:33;;;;;;;9.40;8.40;;;;;;;;;;4961121;28;20574;-49
2022/03/04 06:14:00;;;;;;;8.60;7.70;;;;;;;;;;4976182;28;20237;-49
2022/03/04 06:16:28;;;;;;;9.40;8.43;;;;;;;;;;4975893;28;20203;-49
2022/03/04 06:18:55;;;;;;;9.25;8.35;;;;;;;;;;4976706;28;20290;-49
2022/03/04 06:21:22;;;;;;;9.68;8.68;;;;;;;;;;4975889;28;20204;-49
2022/03/04 06:23:52;;;;;;;9.63;8.60;;;;;;;;;;4975740;28;20278;-49
2022/03/04 06:26:20;;;;;;;9.05;8.15;;;;;;;;;;4976042;28;20547;-49
2022/03/04 06:28:47;;;;;;;8.90;8.00;;;;;;;;;;4976540;28;20200;-49
2022/03/04 06:31:16;;;;;;;9.02;8.13;;;;;;;;;;4976012;28;20215;-50
2022/03/04 06:33:44;;;;;;;9.60;8.45;;;;;;;;;;4976248;28;20278;-49
2022/03/04 06:36:13;;;;;;;8.35;7.55;;;;;;;;;;4975812;28;20218;-49
2022/03/04 06:38:41;;;;;;;8.30;7.50;;;;;;;;;;4977112;28;20219;-49
2022/03/04 06:41:10;;;;;;;8.75;7.85;;;;;;;;;;4974879;28;20596;-49
2022/03/04 06:43:38;;;;;;;8.68;7.80;;;;;;;;;;4975322;28;20283;-49
2022/03/04 06:46:06;;;;;;;8.70;7.80;;;;;;;;;;4975568;28;20266;-49
2022/03/04 06:48:34;;;;;;;9.20;7.90;;;;;;;;;;4975932;28;20260;-49
2022/03/04 06:51:02;;;;;;;8.18;7.38;;;;;;;;;;4975191;28;20212;-49
2022/03/04 06:53:29;;;;;;;8.98;7.90;;;;;;;;;;4975047;28;20514;-49
2022/03/04 06:55:57;;;;;;;8.70;7.78;;;;;;;;;;4975671;28;20203;-49
2022/03/04 06:58:25;;;;;;;8.15;7.35;;;;;;;;;;4975768;28;20223;-49
2022/03/04 07:00:52;;;;;;;8.07;7.28;;;;;;;;;;4975880;28;20211;-49
2022/03/04 07:03:20;;;;;;;7.88;7.07;;;;;;;;;;4975472;28;20235;-49
2022/03/04 07:05:48;;;;;;;8.13;6.95;;;;;;;;;;4976310;28;20270;-49
2022/03/04 07:08:15;;;;;;;8.10;7.30;;;;;;;;;;4975912;28;20216;-49
2022/03/04 07:10:43;;;;;;;8.02;7.22;;;;;;;;;;4975335;28;20270;-49
2022/03/04 07:13:11;;;;;;;7.97;7.18;;;;;;;;;;4975703;28;20195;-49
2022/03/04 07:15:39;;;;;;;7.93;7.10;;;;;;;;;;4975248;28;20218;-49
2022/03/04 07:18:07;;;;;;;7.90;7.13;;;;;;;;;;4974406;28;20246;-49
2022/03/04 07:20:34;;;;;;;7.72;6.93;;;;;;;;;;4975653;28;20464;-49
2022/03/04 07:23:01;;;;;;;7.65;6.85;;;;;;;;;;4975376;28;20293;-49
2022/03/04 07:25:29;;;;;;;7.43;6.72;;;;;;;;;;4974126;28;20211;-49
2022/03/04 07:27:56;;;;;;;7.03;6.32;;;;;;;;;;4975665;28;20231;-49
2022/03/04 07:30:23;;;;;;;7.00;6.25;;;;;;;;;;4975956;28;20215;-49
2022/03/04 07:32:52;;;;;;;6.90;6.22;;;;;;;;;;4975610;28;20211;-49
2022/03/04 07:35:19;;;;;;;7.47;6.78;;;;;;;;;;4975741;28;20211;-50
2022/03/04 07:37:47;;;;;;;6.97;6.28;;;;;;;;;;4978088;28;20199;-49
2022/03/04 07:40:15;;;;;;;7.18;6.47;;;;;;;;;;4995347;28;20265;-49
2022/03/04 07:42:43;;;;;;;6.93;6.22;;;;;;;;;;4985513;28;20231;-49
2022/03/04 07:45:11;;;;;;;6.82;6.20;;;;;;;;;;4975630;28;20627;-50
2022/03/04 07:47:39;;;;;;;6.65;5.95;;;;;;;;;;4975974;28;20595;-49
2022/03/04 07:50:09;;;;;;;6.32;5.72;;;;;;;;;;4975353;28;20227;-49
2022/03/04 07:52:36;;;;;;;6.55;5.95;;;;;;;;;;4978601;28;20211;-49
2022/03/04 07:55:04;;;;;;;6.30;5.68;;;;;;;;;;4979546;28;20679;-49
2022/03/04 07:57:31;;;;;;;6.60;5.90;;;;;;;;;;4979189;28;20200;-49
2022/03/04 07:59:59;;;;;;;6.40;5.80;;;;;;;;;;4978628;28;20211;-49
2022/03/04 08:02:26;;;;;;;5.95;5.40;;;;;;;;;;4978814;28;20200;-49
2022/03/04 08:04:53;;;;;;;6.07;5.32;;;;;;;;;;4978965;28;20250;-49
2022/03/04 08:07:22;;;;;;;6.38;5.78;;;;;;;;;;4978904;28;20203;-49
2022/03/04 08:09:49;;;;;;;7.13;5.88;;;;;;;;;;4979251;28;20207;-49
2022/03/04 08:12:17;;;;;;;6.40;5.75;;;;;;;;;;4978594;28;20251;-49
2022/03/04 08:14:44;;;;;;;6.80;6.10;;;;;;;;;;4978638;28;20204;-49
2022/03/04 08:17:12;;;;;;;6.20;5.60;;;;;;;;;;4977196;28;20203;-49
2022/03/04 08:19:41;;;;;;;6.05;5.45;;;;;;;;;;4977631;28;20298;-49
2022/03/04 08:22:08;;;;;;;6.07;5.47;;;;;;;;;;4978408;28;20244;-49
2022/03/04 08:24:37;;;;;;;6.57;5.82;;;;;;;;;;4977998;28;20227;-49
2022/03/04 08:27:04;;;;;;;5.80;5.30;;;;;;;;;;4978606;28;20211;-49
2022/03/04 08:29:32;;;;;;;6.65;5.43;;;;;;;;;;4978401;28;20835;-49
2022/03/04 08:32:00;;;;;;;5.93;5.32;;;;;;;;;;4977614;28;20204;-49
2022/03/04 08:34:27;;;;;;;6.13;5.53;;;;;;;;;;4977512;28;20200;-49
2022/03/04 08:36:54;;;;;;;6.15;5.55;;;;;;;;;;4977365;28;20204;-49
2022/03/04 08:39:21;;;;;;;6.07;5.47;;;;;;;;;;4978158;28;20286;-49
2022/03/04 08:41:50;;;;;;;6.80;6.10;;;;;;;;;;4976605;28;20783;-49
2022/03/04 08:44:17;;;;;;;6.00;5.40;;;;;;;;;;4977455;28;20239;-49
2022/03/04 08:46:44;;;;;;;5.63;5.13;;;;;;;;;;4977739;28;20332;-49
2022/03/04 08:49:13;;;;;;;5.32;4.82;;;;;;;;;;4977994;28;20200;-49
2022/03/04 08:51:41;;;;;;;6.10;5.40;;;;;;;;;;4977304;28;20296;-49
2022/03/04 08:54:08;;;;;;;5.93;4.97;;;;;;;;;;4977537;28;20229;-49
2022/03/04 08:56:36;;;;;;;5.80;5.20;;;;;;;;;;4976215;28;20203;-49
2022/03/04 08:59:05;;;;;;;6.00;5.40;;;;;;;;;;4977868;28;20602;-49
2022/03/04 09:01:32;;;;;;;5.72;5.13;;;;;;;;;;4977694;28;20796;-49
2022/03/04 09:03:59;;;;;;;6.18;5.28;;;;;;;;;;4977505;28;20231;-49
2022/03/04 09:06:26;;;;;;;5.40;4.90;;;;;;;;;;4978110;28;20270;-49
2022/03/04 09:08:54;;;;;;;5.57;5.07;;;;;;;;;;4977963;28;20208;-49
2022/03/04 09:11:21;;;;;;;5.78;5.18;;;;;;;;;;4977787;28;20207;-49
2022/03/04 09:13:48;;;;;;;5.30;4.80;;;;;;;;;;4977085;28;20261;-49
2022/03/04 09:16:17;;;;;;;5.57;5.07;;;;;;;;;;4977079;28;20208;-49
2022/03/04 09:18:44;;;;;;;5.60;4.97;;;;;;;;;;4978024;28;20204;-49
2022/03/04 09:21:11;;;;;;;4.90;4.40;;;;;;;;;;4977322;28;20535;-49
2022/03/04 09:23:39;;;;;;;5.28;4.60;;;;;;;;;;4977618;28;20220;-49
2022/03/04 09:26:06;;;;;;;5.43;4.43;;;;;;;;;;4977237;28;20251;-49
2022/03/04 09:28:34;;;;;;;5.07;4.57;;;;;;;;;;4977321;28;20203;-49
2022/03/04 09:31:01;;;;;;;5.10;4.53;;;;;;;;;;4977815;28;20207;-49
2022/03/04 09:33:29;;;;;;;5.00;4.50;;;;;;;;;;4977337;28;20211;-49
2022/03/04 09:35:57;;;;;;;5.25;4.50;;;;;;;;;;4976967;28;20212;-49
2022/03/04 09:38:25;;;;;;;4.75;4.32;;;;;;;;;;4977221;28;20279;-49
2022/03/04 09:40:52;;;;;;;6.13;4.88;;;;;;;;;;4976537;28;20579;-49
2022/03/04 09:43:20;;;;;;;5.20;4.70;;;;;;;;;;4976948;28;20507;-49
2022/03/04 09:45:48;;;;;;;5.03;4.53;;;;;;;;;;4977833;28;20262;-49
2022/03/04 09:48:16;;;;;;;5.38;4.70;;;;;;;;;;4977349;28;20246;-50
2022/03/04 09:50:46;;;;;;;5.30;4.70;;;;;;;;;;4976672;28;20278;-49
2022/03/04 09:53:14;;;;;;;5.90;4.80;;;;;;;;;;4976916;28;20200;-49
2022/03/04 09:55:41;;;;;;;5.47;4.75;;;;;;;;;;4976968;28;20679;-49
2022/03/04 09:58:12;;;;;;;4.97;4.55;;;;;;;;;;4977747;28;20216;-49
2022/03/04 10:00:43;;;;;;;4.95;4.45;;;;;;;;;;4976716;28;20208;-49
2022/03/04 10:03:13;;;;;;;4.78;4.32;;;;;;;;;;4975968;28;20271;-49
2022/03/04 10:05:52;;;;;;;5.15;4.65;;;;;;;;;;4976000;28;20549;-49
2022/03/04 10:08:20;;;;;;;4.90;4.40;;;;;;;;;;4976266;28;20575;-49
2022/03/04 10:10:49;;;;;;;4.70;4.28;;;;;;;;;;4974676;28;20208;-49
2022/03/04 10:13:17;;;;;;;4.38;3.97;;;;;;;;;;4974541;28;20211;-49
2022/03/04 10:15:54;;;;;;;5.35;4.60;;;;;;;;;;4974825;28;20207;-49
2022/03/04 10:18:26;;;;;;;5.50;4.55;;;;;;;;;;4976807;28;20238;-49
2022/03/04 10:20:55;;;;;;;5.05;4.55;;;;;;;;;;4975506;28;20295;-49
2022/03/04 10:23:23;;;;;;;5.18;4.68;;;;;;;;;;4975403;28;20286;-49
2022/03/04 10:25:51;;;;;;;5.05;4.55;;;;;;;;;;4975461;28;20259;-49
2022/03/04 10:28:19;;;;;;;4.43;4.03;;;;;;;;;;4975596;28;20586;-49
2022/03/04 10:30:48;;;;;;;5.07;4.57;;;;;;;;;;4974875;28;20258;-49
2022/03/04 10:33:17;;;;;;;5.18;4.68;;;;;;;;;;4974247;28;20207;-49
2022/03/04 10:35:45;;;;;;;5.20;4.57;;;;;;;;;;4975580;28;20200;-49
2022/03/04 10:38:21;;;;;;;4.93;4.43;;;;;;;;;;4975853;28;20274;-49
2022/03/04 10:40:48;;;;;;;5.10;4.60;;;;;;;;;;4984841;28;20202;-49
2022/03/04 10:43:23;;;;;;;4.93;4.43;;;;;;;;;;4961983;28;20196;-49
2022/03/04 10:45:59;;;;;;;4.82;4.28;;;;;;;;;;4976444;28;20231;-49
2022/03/04 10:48:26;;;;;;;5.38;4.68;;;;;;;;;;4983750;28;20210;-49
2022/03/04 10:50:55;;;;;;;5.00;4.47;;;;;;;;;;4980942;28;20212;-49
2022/03/04 10:53:24;;;;;;;4.90;4.40;;;;;;;;;;4974432;28;20593;-49
2022/03/04 10:55:52;;;;;;;5.20;4.68;;;;;;;;;;4974279;28;20552;-49
2022/03/04 10:58:20;;;;;;;5.13;4.50;;;;;;;;;;4979431;28;20628;-49
2022/03/04 11:00:48;;;;;;;5.15;4.65;;;;;;;;;;4974149;28;20204;-49
2022/03/04 11:03:17;;;;;;;4.63;4.20;;;;;;;;;;4974427;28;20204;-49
2022/03/04 11:05:44;;;;;;;5.05;4.18;;;;;;;;;;4975625;28;20235;-49
2022/03/04 11:08:12;;;;;;;5.40;4.35;;;;;;;;;;4973983;28;20211;-49
2022/03/04 11:10:41;;;;;;;5.35;4.65;;;;;;;;;;4973843;28;20207;-49
2022/03/04 11:13:09;;;;;;;4.50;3.95;;;;;;;;;;4973775;28;20762;-49
2022/03/04 11:15:37;;;;;;;5.78;5.15;;;;;;;;;;4981112;28;20199;-49
2022/03/04 11:18:05;;;;;;;5.97;5.38;;;;;;;;;;4975359;28;20219;-49
2022/03/04 11:20:33;;;;;;;6.90;5.43;;;;;;;;;;4993601;28;20552;-49
2022/03/04 11:23:01;;;;;;;24.63;22.13;;;;;;;;;;4987285;28;20575;-49
2022/03/04 11:25:35;;;;;;;36.60;32.97;;;;;;;;;;4976398;28;20231;-49
2022/03/04 11:28:10;;;;;;;31.67;28.38;;;;;;;;;;4978012;28;20207;-49
2022/03/04 11:30:38;;;;;;;28.95;26.00;;;;;;;;;;4978744;28;20202;-49
2022/03/04 11:33:07;;;;;;;28.55;25.77;;;;;;;;;;4988881;28;20200;-49
2022/03/04 11:35:49;;;;;;;28.35;25.35;;;;;;;;;;4977647;28;20199;-49
2022/03/04 11:38:16;;;;;;;25.35;22.75;;;;;;;;;;4977194;28;20210;-49
2022/03/04 11:40:50;;;;;;;24.60;22.10;;;;;;;;;;4978029;28;20215;-49
2022/03/04 11:43:19;;;;;;;24.60;21.98;;;;;;;;;;4975761;28;20286;-49
2022/03/04 11:46:03;;;;;;;22.52;20.20;;;;;;;;;;4988093;28;20298;-49
2022/03/04 11:48:30;;;;;;;22.25;19.88;;;;;;;;;;4981815;28;20661;-49
2022/03/04 11:50:58;;;;;;;22.35;20.02;;;;;;;;;;4980039;28;20212;-49
2022/03/04 11:53:27;;;;;;;21.73;19.23;;;;;;;;;;4983872;28;20684;-49
2022/03/04 11:56:14;;;;;;;21.75;18.50;;;;;;;;;;4977171;28;20204;-49
2022/03/04 11:59:07;;;;;;;22.08;19.23;;;;;;;;;;4977758;28;20496;-49
2022/03/04 12:01:36;;;;;;;21.20;18.90;;;;;;;;;;4977825;28;20641;-49
2022/03/04 12:04:07;;;;;;;23.08;19.55;;;;;;;;;;4978815;28;20534;-49
2022/03/04 12:06:34;;;;;;;21.48;18.42;;;;;;;;;;4977242;28;20203;-49
2022/03/04 12:09:16;;;;;;;22.55;18.17;;;;;;;;;;4977616;28;20270;-49
2022/03/04 12:12:10;;;;;;;33.67;29.05;;;;;;;;;;4976547;28;20749;-49
2022/03/04 12:14:38;;;;;;;29.42;26.15;;;;;;;;;;4977276;28;20204;-49
2022/03/04 12:17:06;;;;;;;29.15;26.02;;;;;;;;;;4979105;28;20200;-49
2022/03/04 12:19:35;;;;;;;30.08;26.02;;;;;;;;;;4980744;28;20199;-49
2022/03/04 12:22:03;;;;;;;27.60;24.10;;;;;;;;;;4992812;28;20207;-49
2022/03/04 12:24:31;;;;;;;30.85;24.20;;;;;;;;;;4976395;28;20544;-49
2022/03/04 12:26:58;;;;;;;28.92;23.55;;;;;;;;;;4976595;28;20203;-49
2022/03/04 12:29:42;;;;;;;28.83;23.50;;;;;;;;;;4976210;28;20196;-49
2022/03/04 12:32:11;;;;;;;28.67;25.38;;;;;;;;;;4976253;28;20203;-49
2022/03/04 12:34:42;;;;;;;31.85;26.98;;;;;;;;;;4975253;28;20199;-49
2022/03/04 12:37:14;;;;;;;30.42;26.48;;;;;;;;;;4974405;28;20550;-49
2022/03/04 12:39:43;;;;;;;29.52;25.40;;;;;;;;;;4975272;28;20215;-49
2022/03/04 12:42:11;;;;;;;29.80;25.60;;;;;;;;;;4966459;28;20227;-49
2022/03/04 12:44:38;;;;;;;27.52;24.63;;;;;;;;;;4971204;28;20799;-49
2022/03/04 12:47:06;;;;;;;28.08;24.70;;;;;;;;;;4974839;28;20215;-49
2022/03/04 12:49:35;;;;;;;27.65;23.77;;;;;;;;;;4974897;28;20200;-49
2022/03/04 12:52:03;;;;;;;28.17;23.15;;;;;;;;;;4976663;28;20596;-49
2022/03/04 12:54:31;;;;;;;28.92;23.88;;;;;;;;;;4976170;28;20203;-49
2022/03/04 12:56:59;;;;;;;26.20;22.60;;;;;;;;;;4976174;28;20709;-49
2022/03/04 12:59:28;;;;;;;25.80;22.52;;;;;;;;;;4975457;28;20271;-49
2022/03/04 13:01:56;;;;;;;28.75;25.35;;;;;;;;;;4976755;28;20318;-49
2022/03/04 13:04:24;;;;;;;30.38;25.35;;;;;;;;;;4976914;28;20227;-49
2022/03/04 13:07:00;;;;;;;27.10;22.92;;;;;;;;;;4976869;28;20499;-49
2022/03/04 13:09:27;;;;;;;26.42;23.50;;;;;;;;;;4976579;28;20207;-49
2022/03/04 13:11:55;;;;;;;25.10;22.60;;;;;;;;;;4977083;28;20212;-49
2022/03/04 13:14:23;;;;;;;25.15;22.42;;;;;;;;;;4976598;28;20200;-49
2022/03/04 13:16:51;;;;;;;24.42;21.80;;;;;;;;;;4977655;28;20208;-49
2022/03/04 13:19:19;;;;;;;24.08;21.52;;;;;;;;;;4976881;28;20572;-49
2022/03/04 13:21:47;;;;;;;22.83;20.38;;;;;;;;;;4976617;28;20270;-49
2022/03/04 13:24:17;;;;;;;23.05;20.08;;;;;;;;;;4976589;28;20302;-49
2022/03/04 13:26:49;;;;;;;22.55;20.15;;;;;;;;;;4976937;28;20204;-49
2022/03/04 13:29:16;;;;;;;21.30;19.00;;;;;;;;;;4976984;28;20208;-49
2022/03/04 13:31:44;;;;;;;21.33;19.10;;;;;;;;;;4976688;28;20270;-49
2022/03/04 13:34:11;;;;;;;20.98;18.77;;;;;;;;;;4976742;28;20204;-49
2022/03/04 13:36:43;;;;;;;19.88;17.15;;;;;;;;;;4976066;28;20207;-49
2022/03/04 13:39:11;;;;;;;20.20;17.38;;;;;;;;;;4961249;28;20518;-49
2022/03/04 13:41:41;;;;;;;20.33;17.10;;;;;;;;;;4977335;28;20208;-49
2022/03/04 13:44:09;;;;;;;18.38;16.40;;;;;;;;;;4974925;28;20789;-49
2022/03/04 13:46:38;;;;;;;18.88;16.75;;;;;;;;;;4975719;28;20234;-49
2022/03/04 13:49:07;;;;;;;16.85;15.20;;;;;;;;;;4974596;28;20208;-49
2022/03/04 13:51:37;;;;;;;17.05;15.30;;;;;;;;;;4974855;28;20818;-49
2022/03/04 13:54:05;;;;;;;17.05;15.38;;;;;;;;;;4976062;28;20200;-49
2022/03/04 13:56:39;;;;;;;16.63;14.95;;;;;;;;;;4975987;28;20596;-49
2022/03/04 13:59:08;;;;;;;17.58;14.30;;;;;;;;;;4976443;28;20306;-49
2022/03/04 14:01:35;;;;;;;15.60;14.10;;;;;;;;;;4977010;28;20215;-49
2022/03/04 14:04:11;;;;;;;15.45;13.77;;;;;;;;;;4975526;28;20200;-49
2022/03/04 14:06:39;;;;;;;15.15;13.68;;;;;;;;;;4976174;28;20227;-49
2022/03/04 14:09:13;;;;;;;14.70;12.77;;;;;;;;;;4976039;28;20215;-49
2022/03/04 14:11:41;;;;;;;15.82;13.40;;;;;;;;;;4977243;28;20535;-49
2022/03/04 14:14:15;;;;;;;14.07;12.48;;;;;;;;;;4975622;28;20563;-49
2022/03/04 14:16:43;;;;;;;14.65;13.15;;;;;;;;;;4976551;28;20741;-49
2022/03/04 14:19:11;;;;;;;13.15;11.73;;;;;;;;;;4975083;28;20754;-49
2022/03/04 14:21:39;;;;;;;12.85;11.55;;;;;;;;;;4976142;28;20279;-49
2022/03/04 14:24:06;;;;;;;12.80;11.48;;;;;;;;;;4975174;28;20212;-49
2022/03/04 14:26:34;;;;;;;13.20;11.88;;;;;;;;;;4974961;28;20235;-49
2022/03/04 14:29:19;;;;;;;12.35;11.02;;;;;;;;;;4974850;28;20278;-49
2022/03/04 14:31:48;;;;;;;12.40;11.18;;;;;;;;;;4975301;28;20231;-49
2022/03/04 14:34:16;;;;;;;12.27;11.05;;;;;;;;;;4975115;28;20211;-49
2022/03/04 14:36:43;;;;;;;12.27;11.02;;;;;;;;;;4976610;28;20282;-49
2022/03/04 14:39:11;;;;;;;11.10;9.95;;;;;;;;;;4976124;28;20266;-49
2022/03/04 14:41:38;;;;;;;12.52;10.98;;;;;;;;;;4975311;28;20560;-49
2022/03/04 14:44:06;;;;;;;11.25;10.15;;;;;;;;;;4974126;28;20653;-49